Time;durP1;ratioP1;P1;durP2;ratioP2;P2;SDS_P1;SDS_P2;PMS_P1;PMS_P2;Temp;Humidity;BMP_temperature;BMP_pressure;BME280_temperature;BME280_humidity;BME280_pressure;Samples;Min_cycle;Max_cycle;Signal;HPM_P1;HPM_P2
2020/12/01 00:01:32;;;;;;;24.57;13.90;;;0.60;99.90;;;;;;5039322;28;20400;-81
2020/12/01 00:03:58;;;;;;;26.77;14.00;;;0.50;99.90;;;;;;5039044;28;20216;-82
2020/12/01 00:06:24;;;;;;;20.07;13.83;;;0.40;99.90;;;;;;4993516;28;20458;-81
2020/12/01 00:08:53;;;;;;;21.47;13.73;;;0.40;99.90;;;;;;4971903;28;20744;-82
2020/12/01 00:11:19;;;;;;;18.63;12.60;;;0.50;99.90;;;;;;4985937;28;20476;-82
2020/12/01 00:13:46;;;;;;;23.03;13.73;;;0.40;99.90;;;;;;5001836;28;20419;-82
2020/12/01 00:16:13;;;;;;;23.90;14.30;;;0.20;99.90;;;;;;4985218;28;21032;-82
2020/12/01 00:18:41;;;;;;;27.97;16.10;;;0.30;99.90;;;;;;5002397;28;20436;-82
2020/12/01 00:21:15;;;;;;;23.43;13.37;;;0.50;99.90;;;;;;5036391;28;20452;-83
2020/12/01 00:23:42;;;;;;;17.90;13.30;;;0.30;99.90;;;;;;5029444;28;20489;-82
2020/12/01 00:26:08;;;;;;;18.80;12.00;;;0.40;99.90;;;;;;5062036;28;20498;-82
2020/12/01 00:28:35;;;;;;;31.03;15.30;;;0.20;99.90;;;;;;5062337;28;20437;-83
2020/12/01 00:31:00;;;;;;;23.47;16.33;;;0.30;99.90;;;;;;5062036;28;20925;-82
2020/12/01 00:33:27;;;;;;;23.37;13.17;;;0.20;99.90;;;;;;5078015;28;20449;-82
2020/12/01 00:35:53;;;;;;;24.07;14.00;;;0.40;99.90;;;;;;5079353;28;20277;-82
2020/12/01 00:38:20;;;;;;;25.83;16.73;;;0.40;99.90;;;;;;5048839;28;20496;-82
2020/12/01 00:40:47;;;;;;;22.57;13.50;;;0.40;99.90;;;;;;5066641;28;20491;-81
2020/12/01 00:43:17;;;;;;;21.07;11.57;;;0.40;99.90;;;;;;5049425;28;20417;-81
2020/12/01 00:45:44;;;;;;;25.33;12.57;;;0.40;99.90;;;;;;5022312;28;20513;-82
2020/12/01 00:48:15;;;;;;;17.50;12.23;;;0.30;99.90;;;;;;5039475;28;20435;-81
2020/12/01 00:50:43;;;;;;;28.67;16.77;;;0.30;99.90;;;;;;5023328;28;20465;-82
2020/12/01 00:53:11;;;;;;;22.93;14.33;;;0.30;99.90;;;;;;5024293;28;20418;-81
2020/12/01 00:55:37;;;;;;;26.73;15.73;;;0.30;99.90;;;;;;5038579;28;20431;-82
2020/12/01 00:58:04;;;;;;;20.47;11.53;;;0.30;99.90;;;;;;5023750;28;20435;-81
2020/12/01 01:00:32;;;;;;;19.93;14.83;;;0.20;99.90;;;;;;5040516;28;20512;-81
2020/12/01 01:02:58;;;;;;;22.07;11.77;;;0.20;99.90;;;;;;4990767;28;20427;-81
2020/12/01 01:05:25;;;;;;;16.20;11.80;;;0.20;99.90;;;;;;5007621;28;20435;-82
2020/12/01 01:07:51;;;;;;;23.80;14.63;;;0.30;99.90;;;;;;5040249;28;20400;-81
2020/12/01 01:10:24;;;;;;;24.70;12.50;;;0.30;99.90;;;;;;5006028;28;20574;-81
2020/12/01 01:13:03;;;;;;;26.20;14.23;;;0.40;99.90;;;;;;5003367;28;20431;-81
2020/12/01 01:15:32;;;;;;;33.43;13.87;;;0.10;99.90;;;;;;4979577;28;20433;-82
2020/12/01 01:18:00;;;;;;;24.00;14.10;;;0.30;99.90;;;;;;5000053;28;20500;-82
2020/12/01 01:20:28;;;;;;;22.93;11.53;;;0.30;99.90;;;;;;4999956;28;20486;-81
2020/12/01 01:22:56;;;;;;;20.50;12.70;;;0.30;99.90;;;;;;4967394;28;20422;-82
2020/12/01 01:25:22;;;;;;;22.37;11.27;;;0.30;99.90;;;;;;4983236;28;20433;-82
2020/12/01 01:27:48;;;;;;;20.57;11.43;;;0.40;99.90;;;;;;5000314;28;20448;-82
2020/12/01 01:30:17;;;;;;;21.17;11.23;;;0.20;99.90;;;;;;5000495;28;20519;-81
2020/12/01 01:32:43;;;;;;;22.57;14.67;;;0.20;99.90;;;;;;4983141;28;20444;-81
2020/12/01 01:35:09;;;;;;;26.30;15.33;;;0.40;99.90;;;;;;5001782;28;20499;-82
2020/12/01 01:37:35;;;;;;;18.50;15.77;;;0.30;99.90;;;;;;4999588;28;20421;-81
2020/12/01 01:40:01;;;;;;;33.53;14.10;;;0.50;99.90;;;;;;4999634;28;20480;-81
2020/12/01 01:42:27;;;;;;;9.33;8.40;;;0.40;99.90;;;;;;5000294;28;20178;-82
2020/12/01 01:44:53;;;;;;;16.30;11.70;;;0.20;99.90;;;;;;5022472;28;20185;-82
2020/12/01 01:47:23;;;;;;;26.27;11.07;;;0.40;99.90;;;;;;5023327;28;20185;-81
2020/12/01 01:50:01;;;;;;;23.57;13.40;;;0.50;99.90;;;;;;4985365;28;20169;-81
2020/12/01 01:52:34;;;;;;;24.60;14.63;;;0.60;99.90;;;;;;4943144;29;20415;-80
2020/12/01 01:55:08;;;;;;;22.27;12.23;;;0.50;99.90;;;;;;4943655;28;20408;-81
2020/12/01 01:57:35;;;;;;;28.87;14.27;;;0.60;99.90;;;;;;4963742;28;20416;-81
2020/12/01 02:00:14;;;;;;;29.53;13.60;;;0.50;99.90;;;;;;4979934;28;20464;-81
2020/12/01 02:02:40;;;;;;;20.37;12.10;;;0.50;99.90;;;;;;4964273;28;20524;-81
2020/12/01 02:05:07;;;;;;;21.80;12.53;;;0.30;99.90;;;;;;4964493;28;20861;-81
2020/12/01 02:07:33;;;;;;;27.90;14.67;;;0.50;99.90;;;;;;4964665;28;20237;-81
2020/12/01 02:10:05;;;;;;;31.97;14.10;;;0.40;99.90;;;;;;4965298;28;20974;-81
2020/12/01 02:12:36;;;;;;;19.23;12.03;;;0.40;99.90;;;;;;5009550;28;20431;-81
2020/12/01 02:15:08;;;;;;;16.77;12.13;;;0.40;99.90;;;;;;5006736;28;20437;-81
2020/12/01 02:17:40;;;;;;;21.03;13.60;;;0.50;99.90;;;;;;5039521;28;20411;-79
2020/12/01 02:20:12;;;;;;;21.00;12.07;;;0.70;99.90;;;;;;5020698;28;20722;-82
2020/12/01 02:22:43;;;;;;;22.00;14.13;;;0.50;99.90;;;;;;5032170;28;20408;-81
2020/12/01 02:25:09;;;;;;;22.30;12.17;;;0.80;99.90;;;;;;5068564;28;20385;-80
2020/12/01 02:27:38;;;;;;;24.67;14.63;;;0.50;99.90;;;;;;5066201;28;20465;-81
2020/12/01 02:30:11;;;;;;;22.03;11.50;;;0.50;99.90;;;;;;5068389;28;20470;-81
2020/12/01 02:32:39;;;;;;;23.80;15.77;;;0.40;99.90;;;;;;5055268;28;20438;-79
2020/12/01 02:35:09;;;;;;;19.37;11.57;;;0.50;99.90;;;;;;5064315;28;20385;-79
2020/12/01 02:37:38;;;;;;;25.27;13.30;;;0.50;99.90;;;;;;5066095;28;20412;-79
2020/12/01 02:40:06;;;;;;;23.83;12.57;;;0.60;99.90;;;;;;5067315;28;20405;-81
2020/12/01 02:42:33;;;;;;;22.83;14.70;;;0.70;99.90;;;;;;5083319;28;20413;-81
2020/12/01 02:44:59;;;;;;;24.90;12.30;;;0.70;99.90;;;;;;5067095;28;20407;-82
2020/12/01 02:47:26;;;;;;;19.03;12.77;;;0.70;99.90;;;;;;5082880;28;20409;-82
2020/12/01 02:49:52;;;;;;;27.87;13.70;;;0.70;99.90;;;;;;5100785;28;20430;-82
2020/12/01 02:52:20;;;;;;;20.47;10.23;;;0.60;99.90;;;;;;5067078;28;20416;-81
2020/12/01 02:54:47;;;;;;;24.97;14.97;;;0.50;99.90;;;;;;5041986;28;20180;-82
2020/12/01 02:57:14;;;;;;;20.77;12.17;;;0.70;99.90;;;;;;5025052;28;20420;-81
2020/12/01 02:59:40;;;;;;;20.13;12.17;;;0.80;99.90;;;;;;5058542;28;20501;-82
2020/12/01 03:02:06;;;;;;;23.10;12.87;;;0.70;99.90;;;;;;5025071;28;20480;-82
2020/12/01 03:04:32;;;;;;;25.67;14.27;;;0.50;99.90;;;;;;5041130;28;20763;-82
2020/12/01 03:06:58;;;;;;;21.53;12.67;;;0.70;99.90;;;;;;5003911;28;20196;-82
2020/12/01 03:09:24;;;;;;;22.77;12.67;;;0.70;99.90;;;;;;5036752;28;20191;-82
2020/12/01 03:11:50;;;;;;;31.00;14.70;;;0.60;99.90;;;;;;5020366;28;20235;-82
2020/12/01 03:14:18;;;;;;;20.70;11.60;;;0.60;99.90;;;;;;5022580;28;20404;-82
2020/12/01 03:16:47;;;;;;;27.37;17.43;;;0.60;99.90;;;;;;5040365;28;20189;-82
2020/12/01 03:19:15;;;;;;;19.20;11.93;;;0.60;99.90;;;;;;5023071;28;20532;-82
2020/12/01 03:21:40;;;;;;;24.07;13.77;;;0.70;99.90;;;;;;5041125;28;20429;-81
2020/12/01 03:24:06;;;;;;;24.27;15.20;;;0.60;99.90;;;;;;5024196;28;20395;-81
2020/12/01 03:26:35;;;;;;;19.53;11.47;;;0.60;99.90;;;;;;5058280;28;20176;-82
2020/12/01 03:29:01;;;;;;;26.60;12.40;;;0.70;99.90;;;;;;5063335;28;20294;-82
2020/12/01 03:31:26;;;;;;;21.30;12.60;;;0.60;99.90;;;;;;5063504;28;20457;-81
2020/12/01 03:33:52;;;;;;;23.17;11.73;;;0.50;99.90;;;;;;5063764;28;20174;-81
2020/12/01 03:36:22;;;;;;;20.27;11.67;;;0.50;99.90;;;;;;5080406;28;20168;-81
2020/12/01 03:38:47;;;;;;;17.00;11.50;;;0.60;99.90;;;;;;5080585;28;20435;-81
2020/12/01 03:41:14;;;;;;;24.50;12.30;;;0.60;99.90;;;;;;5083695;28;20440;-82
2020/12/01 03:43:40;;;;;;;23.00;13.37;;;0.60;99.90;;;;;;5102006;28;20702;-81
2020/12/01 03:46:07;;;;;;;24.97;13.03;;;0.60;99.90;;;;;;5067250;28;20400;-82
2020/12/01 03:48:32;;;;;;;25.17;12.67;;;0.80;99.90;;;;;;5101510;28;20893;-81
2020/12/01 03:50:59;;;;;;;24.30;12.63;;;0.70;99.90;;;;;;5066894;28;20436;-81
2020/12/01 03:53:25;;;;;;;23.00;15.90;;;0.70;99.90;;;;;;5066970;28;20661;-82
2020/12/01 03:55:50;;;;;;;31.63;13.00;;;0.80;99.90;;;;;;5067941;28;20882;-82
2020/12/01 03:58:17;;;;;;;21.97;13.87;;;0.80;99.90;;;;;;5082003;28;20454;-81
2020/12/01 04:00:43;;;;;;;30.20;13.50;;;1.00;99.90;;;;;;5101551;28;20389;-81
2020/12/01 04:03:09;;;;;;;25.20;14.53;;;1.00;99.90;;;;;;5083377;28;20400;-81
2020/12/01 04:05:35;;;;;;;20.10;11.70;;;0.90;99.90;;;;;;5067008;28;20651;-80
2020/12/01 04:08:01;;;;;;;23.30;12.37;;;1.00;99.90;;;;;;5087190;28;20185;-80
2020/12/01 04:10:27;;;;;;;20.87;13.80;;;0.90;99.90;;;;;;5084488;28;21106;-80
2020/12/01 04:12:54;;;;;;;21.37;11.13;;;0.80;99.90;;;;;;5102793;28;20159;-80
2020/12/01 04:15:21;;;;;;;22.07;11.97;;;0.90;99.90;;;;;;5085606;28;20407;-80
2020/12/01 04:17:48;;;;;;;27.43;12.80;;;0.90;99.90;;;;;;5102897;28;20420;-81
2020/12/01 04:20:15;;;;;;;31.73;14.23;;;0.90;99.90;;;;;;5103704;28;20508;-80
2020/12/01 04:22:42;;;;;;;24.20;11.83;;;0.90;99.90;;;;;;5104451;28;20396;-81
2020/12/01 04:25:08;;;;;;;17.33;11.67;;;1.10;99.90;;;;;;5085528;28;20397;-80
2020/12/01 04:27:35;;;;;;;24.40;12.60;;;0.80;99.90;;;;;;5086794;28;20420;-80
2020/12/01 04:30:03;;;;;;;23.60;10.97;;;0.80;99.90;;;;;;5104898;28;20408;-81
2020/12/01 04:32:29;;;;;;;26.90;14.93;;;0.70;99.90;;;;;;5087330;28;20413;-81
2020/12/01 04:34:54;;;;;;;28.47;13.77;;;0.80;99.90;;;;;;5105624;28;20510;-81
2020/12/01 04:37:20;;;;;;;22.70;12.00;;;0.80;99.90;;;;;;5085624;28;20169;-81
2020/12/01 04:39:46;;;;;;;20.87;12.43;;;0.80;99.90;;;;;;5070443;28;20163;-80
2020/12/01 04:42:17;;;;;;;23.40;11.60;;;0.70;99.90;;;;;;5046712;28;20221;-79
2020/12/01 04:45:00;;;;;;;26.30;14.00;;;0.70;99.90;;;;;;5047740;28;20414;-81
2020/12/01 04:47:33;;;;;;;20.23;13.07;;;0.70;99.90;;;;;;5043369;28;20526;-79
2020/12/01 04:50:08;;;;;;;18.00;12.57;;;0.80;99.90;;;;;;5044831;28;20753;-80
2020/12/01 04:52:57;;;;;;;22.30;11.97;;;0.70;99.90;;;;;;4968224;28;20441;-79
2020/12/01 04:55:50;;;;;;;29.07;13.93;;;1.00;99.90;;;;;;4968908;28;20390;-79
2020/12/01 04:58:45;;;;;;;25.27;13.20;;;0.90;99.90;;;;;;4975047;28;20518;-81
2020/12/01 05:01:31;;;;;;;23.73;12.13;;;1.00;99.90;;;;;;4949093;28;20482;-80
2020/12/01 05:04:14;;;;;;;26.10;16.80;;;0.90;99.90;;;;;;4983235;28;20417;-81
2020/12/01 05:06:58;;;;;;;20.30;11.30;;;1.00;99.90;;;;;;4951170;28;20495;-80
2020/12/01 05:09:43;;;;;;;19.90;13.10;;;1.00;99.90;;;;;;4982993;28;20441;-80
2020/12/01 05:12:17;;;;;;;28.97;12.40;;;1.10;99.90;;;;;;4984286;28;20473;-80
2020/12/01 05:15:12;;;;;;;25.47;14.57;;;1.30;99.90;;;;;;4985479;28;20424;-80
2020/12/01 05:18:03;;;;;;;19.33;12.53;;;1.00;99.90;;;;;;4995477;28;20464;-79
2020/12/01 05:20:29;;;;;;;29.20;14.70;;;1.00;99.90;;;;;;4974506;28;20432;-80
2020/12/01 05:23:00;;;;;;;23.17;12.60;;;0.90;99.90;;;;;;5016643;28;20443;-81
2020/12/01 05:25:29;;;;;;;23.90;12.60;;;0.90;99.90;;;;;;5044059;28;20172;-81
2020/12/01 05:28:14;;;;;;;20.73;13.20;;;0.90;99.90;;;;;;5075641;28;20421;-80
2020/12/01 05:30:44;;;;;;;23.70;12.70;;;1.00;99.90;;;;;;5084601;28;20455;-80
2020/12/01 05:33:24;;;;;;;22.30;14.47;;;1.00;99.90;;;;;;5078087;28;20410;-80
2020/12/01 05:36:14;;;;;;;20.33;11.73;;;0.80;99.90;;;;;;5063475;28;20478;-81
2020/12/01 05:38:44;;;;;;;18.43;12.40;;;0.90;99.90;;;;;;5071653;28;20504;-80
2020/12/01 05:41:22;;;;;;;21.30;13.37;;;0.90;99.90;;;;;;5083000;28;20419;-80
2020/12/01 05:43:55;;;;;;;17.77;10.67;;;0.80;99.90;;;;;;5049820;28;20414;-80
2020/12/01 05:46:35;;;;;;;28.90;12.93;;;0.80;99.90;;;;;;5075697;28;20404;-80
2020/12/01 05:49:26;;;;;;;19.53;11.70;;;0.80;99.90;;;;;;5059309;28;20488;-82
2020/12/01 05:52:03;;;;;;;18.93;12.00;;;0.80;99.90;;;;;;5084202;28;20448;-82
2020/12/01 05:54:37;;;;;;;21.70;11.23;;;0.70;99.90;;;;;;5051698;28;20400;-82
2020/12/01 05:57:17;;;;;;;23.30;13.20;;;0.70;99.90;;;;;;5068358;28;20865;-82
2020/12/01 05:59:57;;;;;;;15.60;12.00;;;0.80;99.90;;;;;;5078718;28;20433;-82
2020/12/01 06:03:03;;;;;;;26.07;14.73;;;0.80;99.90;;;;;;5041425;28;20442;-82
2020/12/01 06:05:29;;;;;;;20.07;10.70;;;1.00;99.90;;;;;;5026364;28;20443;-81
2020/12/01 06:08:04;;;;;;;24.07;15.93;;;1.10;99.90;;;;;;5002429;28;20447;-82
2020/12/01 06:10:40;;;;;;;26.03;12.40;;;1.10;99.90;;;;;;5040084;28;20480;-79
2020/12/01 06:13:26;;;;;;;18.67;10.30;;;1.10;99.90;;;;;;5025266;28;20584;-80
2020/12/01 06:16:03;;;;;;;21.53;11.40;;;1.00;99.90;;;;;;5026483;28;20447;-80
2020/12/01 06:18:44;;;;;;;21.90;11.77;;;1.00;99.90;;;;;;5025773;28;20884;-81
2020/12/01 06:21:11;;;;;;;21.87;12.60;;;1.10;99.90;;;;;;5001409;28;20502;-81
2020/12/01 06:24:18;;;;;;;21.33;13.50;;;1.10;99.90;;;;;;5025286;28;20422;-81
2020/12/01 06:27:12;;;;;;;22.17;13.13;;;1.00;99.90;;;;;;5041012;28;20512;-81
2020/12/01 06:30:15;;;;;;;19.53;14.63;;;0.90;99.90;;;;;;5020700;28;20393;-81
2020/12/01 06:33:20;;;;;;;16.23;10.60;;;0.80;99.90;;;;;;5031982;28;20451;-80
2020/12/01 06:36:21;;;;;;;19.37;13.53;;;1.00;99.90;;;;;;5013281;28;20429;-81
2020/12/01 06:39:07;;;;;;;22.73;13.90;;;1.20;99.90;;;;;;5047539;28;20398;-81
2020/12/01 06:41:40;;;;;;;17.43;11.97;;;1.20;99.90;;;;;;5061133;28;20953;-81
2020/12/01 06:44:16;;;;;;;25.70;12.00;;;1.00;99.90;;;;;;5044701;28;20469;-81
2020/12/01 06:46:49;;;;;;;27.00;14.97;;;1.10;99.90;;;;;;5044565;28;20497;-81
2020/12/01 06:49:18;;;;;;;21.67;13.00;;;1.20;99.90;;;;;;5047838;28;20909;-81
2020/12/01 06:51:52;;;;;;;30.30;18.07;;;1.10;99.90;;;;;;5051041;28;20477;-81
2020/12/01 06:54:19;;;;;;;24.77;12.30;;;1.10;99.90;;;;;;5049721;28;20425;-82
2020/12/01 06:57:01;;;;;;;26.93;16.20;;;1.20;99.90;;;;;;5021257;28;20439;-81
2020/12/01 06:59:29;;;;;;;23.73;13.80;;;1.30;99.90;;;;;;5001655;28;20448;-80
2020/12/01 07:02:18;;;;;;;24.87;14.93;;;1.40;99.90;;;;;;5000379;28;20444;-81
2020/12/01 07:04:44;;;;;;;23.00;13.50;;;1.30;99.90;;;;;;4956147;28;20434;-80
2020/12/01 07:07:31;;;;;;;23.03;12.80;;;1.50;99.90;;;;;;4958952;28;20515;-79
2020/12/01 07:09:57;;;;;;;27.57;16.20;;;1.30;99.90;;;;;;4943746;29;20306;-82
2020/12/01 07:12:39;;;;;;;23.63;13.33;;;1.20;99.90;;;;;;4933843;28;20470;-82
2020/12/01 07:15:16;;;;;;;26.60;16.57;;;1.30;99.90;;;;;;4956749;28;20408;-81
2020/12/01 07:17:50;;;;;;;23.20;13.83;;;1.30;99.90;;;;;;4926889;29;20430;-82
2020/12/01 07:20:40;;;;;;;23.07;13.37;;;1.40;99.90;;;;;;4934231;28;20463;-81
2020/12/01 07:23:22;;;;;;;25.67;13.67;;;1.20;99.90;;;;;;4944684;29;20430;-81
2020/12/01 07:25:58;;;;;;;21.40;14.13;;;1.20;99.90;;;;;;4958727;28;20413;-81
2020/12/01 07:28:34;;;;;;;20.20;11.20;;;1.40;99.90;;;;;;4951660;28;20426;-82
2020/12/01 07:31:28;;;;;;;24.73;14.27;;;1.30;99.90;;;;;;4978538;28;20440;-81
2020/12/01 07:34:03;;;;;;;22.50;12.23;;;1.30;99.90;;;;;;4964446;28;20910;-81
2020/12/01 07:36:37;;;;;;;18.33;12.50;;;1.30;99.90;;;;;;4962612;28;20395;-82
2020/12/01 07:39:15;;;;;;;21.03;13.30;;;1.40;99.90;;;;;;4964506;28;20425;-81
2020/12/01 07:41:53;;;;;;;27.43;14.43;;;1.40;99.90;;;;;;4972476;28;20607;-82
2020/12/01 07:44:25;;;;;;;25.13;14.43;;;1.20;99.90;;;;;;4981207;28;20441;-82
2020/12/01 07:47:19;;;;;;;30.93;14.00;;;1.30;99.90;;;;;;4984119;28;20444;-83
2020/12/01 07:50:13;;;;;;;23.67;12.60;;;1.50;99.90;;;;;;4983603;28;20425;-80
2020/12/01 07:52:43;;;;;;;30.17;14.43;;;1.50;99.90;;;;;;4978161;28;20438;-82
2020/12/01 07:55:26;;;;;;;24.43;15.30;;;1.50;99.90;;;;;;4980575;28;20439;-82
2020/12/01 07:58:08;;;;;;;20.90;12.07;;;1.50;99.90;;;;;;5036819;28;20450;-83
2020/12/01 08:00:34;;;;;;;23.40;15.50;;;1.20;99.90;;;;;;5010105;28;20462;-82
2020/12/01 08:03:04;;;;;;;24.93;14.33;;;1.40;99.90;;;;;;5039306;28;20501;-82
2020/12/01 08:05:30;;;;;;;20.53;12.87;;;1.30;99.90;;;;;;5056273;28;20445;-82
2020/12/01 08:07:57;;;;;;;17.73;11.03;;;1.40;99.90;;;;;;5038579;28;20446;-82
2020/12/01 08:10:25;;;;;;;25.43;15.47;;;1.40;99.90;;;;;;5017990;28;21032;-82
2020/12/01 08:12:58;;;;;;;24.10;12.23;;;1.50;99.90;;;;;;5063086;28;20476;-82
2020/12/01 08:15:23;;;;;;;26.80;15.50;;;1.60;99.90;;;;;;5079622;28;20422;-82
2020/12/01 08:17:51;;;;;;;25.13;16.70;;;1.60;99.90;;;;;;5077871;28;20474;-82
2020/12/01 08:20:24;;;;;;;25.27;14.40;;;1.40;99.90;;;;;;5080310;28;20198;-83
2020/12/01 08:22:59;;;;;;;20.90;13.33;;;1.40;99.90;;;;;;5078501;28;20429;-82
2020/12/01 08:25:28;;;;;;;33.40;16.57;;;1.60;99.90;;;;;;5054307;28;20435;-82
2020/12/01 08:28:04;;;;;;;33.13;16.07;;;1.50;99.90;;;;;;5070876;28;20437;-82
2020/12/01 08:30:44;;;;;;;24.43;14.90;;;1.50;99.90;;;;;;5073297;28;20488;-82
2020/12/01 08:33:25;;;;;;;36.90;16.47;;;1.60;99.90;;;;;;5075127;28;20433;-83
2020/12/01 08:36:00;;;;;;;28.20;17.33;;;1.40;99.90;;;;;;5082445;28;20411;-82
2020/12/01 08:38:47;;;;;;;24.23;15.40;;;1.50;99.90;;;;;;5079139;28;20441;-83
2020/12/01 08:41:40;;;;;;;23.13;13.83;;;1.50;99.90;;;;;;5085508;28;20455;-81
2020/12/01 08:44:26;;;;;;;27.17;17.20;;;1.50;99.90;;;;;;5089611;28;20457;-82
2020/12/01 08:46:53;;;;;;;24.17;13.30;;;1.80;99.90;;;;;;5087724;28;20411;-83
2020/12/01 08:52:03;;;;;;;31.70;17.20;;;1.60;99.90;;;;;;5087603;28;20267;-82
2020/12/01 08:54:32;;;;;;;30.77;16.83;;;1.60;99.90;;;;;;5090785;28;20400;-80
2020/12/01 08:57:16;;;;;;;32.43;16.13;;;1.40;99.90;;;;;;5092891;28;20420;-82
2020/12/01 08:59:59;;;;;;;28.23;15.07;;;1.40;99.90;;;;;;5091844;28;20479;-80
2020/12/01 09:02:38;;;;;;;46.20;26.80;;;1.40;99.90;;;;;;5090658;28;20488;-82
2020/12/01 09:05:05;;;;;;;31.92;19.40;;;1.50;99.90;;;;;;5074502;28;20548;-83
2020/12/01 09:07:40;;;;;;;34.87;17.37;;;1.40;99.90;;;;;;5092066;28;20197;-83
2020/12/01 09:10:20;;;;;;;38.57;18.27;;;1.70;99.90;;;;;;5073242;28;20567;-83
2020/12/01 09:16:20;;;;;;;27.77;14.73;;;2.00;99.90;;;;;;5086331;28;20435;-82
2020/12/01 09:21:58;;;;;;;27.33;15.90;;;2.00;99.90;;;;;;5081214;28;20472;-83
2020/12/01 09:24:18;;;;;;;30.47;17.90;;;2.00;99.90;;;;;;5100122;28;21076;-83
2020/12/01 09:26:45;;;;;;;29.33;16.80;;;1.80;99.90;;;;;;5086548;28;20421;-83
2020/12/01 09:29:11;;;;;;;28.77;15.07;;;1.80;99.90;;;;;;5079854;28;20528;-84
2020/12/01 09:31:39;;;;;;;25.47;16.33;;;1.70;99.90;;;;;;5084151;28;20477;-83
2020/12/01 09:34:05;;;;;;;28.33;17.50;;;1.80;99.90;;;;;;5077276;28;20438;-83
2020/12/01 09:36:31;;;;;;;31.23;20.47;;;1.90;99.90;;;;;;5078186;28;20463;-82
2020/12/01 09:38:57;;;;;;;54.23;18.53;;;1.80;99.90;;;;;;5081063;28;20187;-82
2020/12/01 09:41:25;;;;;;;27.83;14.83;;;1.90;99.90;;;;;;5082041;28;20886;-82
2020/12/01 09:44:00;;;;;;;27.40;16.70;;;1.90;99.90;;;;;;5078001;28;20198;-82
2020/12/01 09:46:40;;;;;;;30.13;19.27;;;1.70;99.90;;;;;;5080206;28;20451;-83
2020/12/01 09:49:06;;;;;;;38.53;19.00;;;1.90;99.90;;;;;;5063083;28;20494;-82
2020/12/01 09:51:32;;;;;;;27.30;16.30;;;1.90;99.90;;;;;;5085816;28;20457;-81
2020/12/01 09:56:55;;;;;;;33.70;16.63;;;1.90;99.90;;;;;;5082783;28;21161;-82
2020/12/01 09:59:44;;;;;;;26.37;14.57;;;1.90;99.90;;;;;;5078353;28;20450;-82
2020/12/01 10:05:08;;;;;;;21.30;15.80;;;1.80;99.90;;;;;;5054008;28;20904;-83
2020/12/01 10:13:11;;;;;;;31.60;17.00;;;2.20;99.90;;;;;;5077609;28;20396;-81
2020/12/01 10:18:33;;;;;;;39.30;18.73;;;2.30;99.90;;;;;;5064177;28;20423;-82
2020/12/01 10:25:06;;;;;;;26.60;16.43;;;2.40;99.90;;;;;;5046167;28;20437;-81
2020/12/01 10:27:10;;;;;;;28.63;13.90;;;2.30;99.90;;;;;;5063361;28;20449;-82
2020/12/01 10:31:03;;;;;;;29.43;15.00;;;2.10;99.90;;;;;;5075144;28;20961;-82
2020/12/01 10:35:15;;;;;;;25.43;16.33;;;2.20;99.90;;;;;;5076640;28;20493;-81
2020/12/01 10:38:02;;;;;;;30.47;16.17;;;2.20;99.90;;;;;;5053079;28;20441;-81
2020/12/01 10:40:29;;;;;;;31.60;17.10;;;2.00;99.90;;;;;;5036465;28;20612;-81
2020/12/01 10:42:56;;;;;;;28.97;17.17;;;2.20;99.90;;;;;;5023284;28;20502;-81
2020/12/01 10:45:24;;;;;;;30.67;18.93;;;2.10;99.90;;;;;;5051707;28;20409;-82
2020/12/01 10:47:53;;;;;;;25.17;13.97;;;2.30;99.90;;;;;;5053580;28;20461;-82
2020/12/01 10:50:23;;;;;;;33.47;18.40;;;2.50;99.90;;;;;;5063660;28;20966;-82
2020/12/01 10:52:59;;;;;;;30.70;18.10;;;2.70;99.90;;;;;;5032866;28;20443;-82
2020/12/01 10:55:30;;;;;;;34.77;21.00;;;2.60;99.90;;;;;;5020814;28;20438;-80
2020/12/01 10:57:59;;;;;;;34.40;18.03;;;2.60;99.90;;;;;;5031417;28;20449;-80
2020/12/01 11:00:27;;;;;;;35.80;20.50;;;2.40;99.90;;;;;;4982777;28;20431;-81
2020/12/01 11:02:54;;;;;;;26.50;15.93;;;2.20;99.90;;;;;;4999680;28;20486;-81
2020/12/01 11:05:26;;;;;;;29.00;16.80;;;2.40;99.90;;;;;;5012844;28;21069;-81
2020/12/01 11:07:52;;;;;;;28.73;15.00;;;2.40;99.90;;;;;;5036519;28;20905;-81
2020/12/01 11:10:18;;;;;;;29.20;17.63;;;2.30;99.90;;;;;;5036479;28;21508;-79
2020/12/01 11:12:44;;;;;;;29.43;16.87;;;2.20;99.90;;;;;;5018604;28;20442;-80
2020/12/01 11:15:14;;;;;;;35.20;18.23;;;2.30;99.90;;;;;;5027625;28;20433;-80
2020/12/01 11:17:41;;;;;;;34.73;19.07;;;2.40;99.90;;;;;;5011781;28;20580;-80
2020/12/01 11:20:10;;;;;;;26.50;16.10;;;2.60;99.90;;;;;;5016790;28;20475;-81
2020/12/01 11:22:36;;;;;;;26.60;14.87;;;2.60;99.90;;;;;;5012602;28;20706;-81
2020/12/01 11:25:03;;;;;;;23.53;14.50;;;2.50;99.90;;;;;;4999913;28;20450;-81
2020/12/01 11:27:29;;;;;;;32.60;17.03;;;2.50;99.90;;;;;;5001169;28;20407;-82
2020/12/01 11:29:55;;;;;;;27.50;15.27;;;2.40;99.90;;;;;;5002404;28;20395;-83
2020/12/01 11:32:22;;;;;;;27.80;17.07;;;2.40;99.90;;;;;;5035389;28;20673;-82
2020/12/01 11:34:48;;;;;;;31.10;16.10;;;2.40;99.90;;;;;;5040697;28;20427;-81
2020/12/01 11:37:14;;;;;;;28.57;17.43;;;2.40;99.90;;;;;;5014408;28;20432;-83
2020/12/01 11:39:40;;;;;;;26.80;15.17;;;2.40;99.90;;;;;;5000861;28;20429;-82
2020/12/01 11:42:07;;;;;;;31.60;18.13;;;2.60;99.90;;;;;;4998793;28;20232;-81
2020/12/01 11:44:33;;;;;;;51.50;17.87;;;2.50;99.90;;;;;;4999063;28;20412;-81
2020/12/01 11:47:00;;;;;;;26.63;16.33;;;2.60;99.90;;;;;;4979938;28;20322;-81
2020/12/01 11:49:27;;;;;;;31.70;19.57;;;2.50;99.90;;;;;;5028158;28;20191;-80
2020/12/01 11:51:53;;;;;;;27.30;18.17;;;2.80;99.90;;;;;;5026864;28;20447;-81
2020/12/01 11:54:20;;;;;;;25.93;16.73;;;2.80;99.90;;;;;;5027468;28;20618;-82
2020/12/01 11:56:48;;;;;;;27.80;16.47;;;3.00;99.90;;;;;;5058640;28;20421;-81
2020/12/01 11:59:14;;;;;;;24.77;14.13;;;3.10;99.90;;;;;;5076391;28;20537;-81
2020/12/01 12:01:40;;;;;;;27.17;17.70;;;3.20;99.90;;;;;;5060727;28;20532;-80
2020/12/01 12:04:06;;;;;;;28.57;15.77;;;2.90;99.90;;;;;;5059043;28;20194;-83
2020/12/01 12:06:35;;;;;;;33.20;17.90;;;2.90;99.90;;;;;;5060638;28;20217;-81
2020/12/01 12:09:02;;;;;;;27.67;15.47;;;3.00;99.90;;;;;;5059578;28;20495;-81
2020/12/01 12:11:29;;;;;;;27.43;15.17;;;2.90;99.90;;;;;;5064601;28;20500;-81
2020/12/01 12:13:55;;;;;;;28.27;17.53;;;2.80;99.90;;;;;;5079895;28;20475;-81
2020/12/01 12:16:27;;;;;;;36.00;18.47;;;2.80;99.90;;;;;;5063309;28;20822;-81
2020/12/01 12:18:54;;;;;;;26.37;15.20;;;2.80;99.90;;;;;;5079519;28;20467;-81
2020/12/01 12:21:21;;;;;;;40.57;17.30;;;2.70;99.90;;;;;;5084853;28;20421;-81
2020/12/01 12:23:48;;;;;;;32.80;18.97;;;2.70;99.90;;;;;;5082273;28;20416;-82
2020/12/01 12:26:17;;;;;;;24.83;17.23;;;2.50;99.90;;;;;;5050587;28;20433;-83
2020/12/01 12:28:43;;;;;;;32.23;15.83;;;2.60;99.90;;;;;;5077504;28;21019;-83
2020/12/01 12:31:12;;;;;;;22.03;14.07;;;2.60;99.90;;;;;;5068094;28;20480;-83
2020/12/01 12:33:46;;;;;;;42.43;20.20;;;2.60;99.90;;;;;;5059026;28;20842;-86
2020/12/01 12:36:16;;;;;;;32.73;18.43;;;2.80;99.90;;;;;;5057780;28;20433;-83
2020/12/01 12:38:45;;;;;;;31.87;18.40;;;2.70;99.90;;;;;;5079127;28;20438;-81
2020/12/01 12:41:11;;;;;;;25.30;17.70;;;2.70;99.90;;;;;;5065278;28;20555;-82
2020/12/01 12:43:37;;;;;;;31.00;14.67;;;2.90;99.90;;;;;;5047776;28;20456;-82
2020/12/01 12:46:03;;;;;;;35.97;19.67;;;3.00;99.90;;;;;;5084667;28;20441;-84
2020/12/01 12:48:29;;;;;;;38.80;20.10;;;3.10;99.90;;;;;;5070694;28;20187;-84
2020/12/01 12:50:56;;;;;;;30.70;18.90;;;3.10;99.90;;;;;;5056125;28;20473;-85
2020/12/01 12:53:23;;;;;;;26.07;17.57;;;2.90;99.90;;;;;;5070124;28;20429;-83
2020/12/01 12:55:49;;;;;;;30.13;16.90;;;2.60;99.90;;;;;;5070831;28;20487;-84
2020/12/01 12:58:17;;;;;;;33.63;19.00;;;2.60;99.90;;;;;;5056456;28;21518;-84
2020/12/01 13:00:47;;;;;;;31.60;19.87;;;2.70;99.90;;;;;;5048094;28;20773;-83
2020/12/01 13:03:13;;;;;;;38.37;17.77;;;2.70;99.90;;;;;;5059820;28;20503;-85
2020/12/01 13:05:50;;;;;;;31.17;18.70;;;2.70;99.90;;;;;;5057685;28;20435;-88
2020/12/01 13:08:15;;;;;;;27.73;15.93;;;2.60;99.90;;;;;;5039265;28;21468;-84
2020/12/01 13:10:42;;;;;;;23.47;14.43;;;2.70;99.90;;;;;;5045336;28;20521;-87
2020/12/01 13:13:08;;;;;;;28.63;17.80;;;2.70;99.90;;;;;;5036238;28;20195;-86
2020/12/01 13:15:34;;;;;;;32.13;18.90;;;2.60;99.90;;;;;;5010560;28;20438;-84
2020/12/01 13:18:33;;;;;;;34.90;17.20;;;2.60;99.90;;;;;;4975639;28;20476;-85
2020/12/01 13:21:12;;;;;;;37.13;19.60;;;2.80;99.90;;;;;;4978736;28;20460;-85
2020/12/01 13:23:39;;;;;;;33.60;18.20;;;2.70;99.90;;;;;;4967972;28;20438;-84
2020/12/01 13:26:05;;;;;;;32.47;16.80;;;2.60;99.90;;;;;;4959164;28;20460;-84
2020/12/01 13:28:31;;;;;;;25.17;14.70;;;2.60;99.90;;;;;;4979930;28;20433;-83